Time;durP1;ratioP1;P1;durP2;ratioP2;P2;SDS_P1;SDS_P2;PMS_P1;PMS_P2;Temp;Humidity;BMP_temperature;BMP_pressure;BME280_temperature;BME280_humidity;BME280_pressure;Samples;Min_cycle;Max_cycle;Signal;HPM_P1;HPM_P2
2022/01/31 00:01:35;;;;;;;3.30;2.00;;;;;;;1.14;79.14;99338.14;84610;1325;22596;-84
2022/01/31 00:03:43;;;;;;;0.60;0.60;;;;;;;1.12;79.14;99338.85;84632;1330;22627;-85
2022/01/31 00:05:52;;;;;;;4.20;0.60;;;;;;;1.11;78.83;99343.34;84586;1331;22615;-86
2022/01/31 00:08:05;;;;;;;1.40;0.80;;;;;;;1.12;78.84;99342.63;84648;1329;22593;-74
2022/01/31 00:10:16;;;;;;;1.20;0.50;;;;;;;1.14;78.47;99343.81;84617;1321;22603;-74
2022/01/31 00:12:32;;;;;;;1.70;0.50;;;;;;;1.15;78.40;99343.63;84611;1330;24547;-85
2022/01/31 00:14:43;;;;;;;3.90;1.00;;;;;;;1.15;78.19;99341.56;84746;1329;25443;-85
2022/01/31 00:16:52;;;;;;;2.90;0.80;;;;;;;1.14;77.68;99345.01;84670;1329;22845;-74
2022/01/31 00:19:01;;;;;;;3.50;0.60;;;;;;;1.13;77.95;99340.05;84625;1331;22619;-74
2022/01/31 00:21:15;;;;;;;0.60;0.30;;;;;;;1.13;78.00;99338.66;84639;1329;22941;-78
2022/01/31 00:23:24;;;;;;;1.70;0.50;;;;;;;1.13;77.95;99346.05;84931;1330;22699;-85
2022/01/31 00:25:36;;;;;;;5.70;2.30;;;;;;;1.12;78.02;99347.09;84746;1332;22725;-85
2022/01/31 00:27:44;;;;;;;1.30;0.50;;;;;;;1.09;77.92;99337.35;84608;1329;25482;-74
2022/01/31 00:29:52;;;;;;;1.40;0.50;;;;;;;1.08;77.40;99343.39;84583;1324;22814;-74
2022/01/31 00:32:01;;;;;;;0.50;0.40;;;;;;;1.08;76.94;99342.36;83183;1329;1003760;-85
2022/01/31 00:34:09;;;;;;;0.90;0.60;;;;;;;1.07;77.18;99335.67;84626;1332;22561;-85
2022/01/31 00:36:21;;;;;;;2.30;0.50;;;;;;;1.08;77.47;99335.48;84636;1329;23925;-85
2022/01/31 00:38:32;;;;;;;1.50;0.50;;;;;;;1.10;77.45;99334.42;83951;1329;1003038;-85
2022/01/31 00:40:42;;;;;;;0.60;0.50;;;;;;;1.13;77.22;99339.86;84569;1323;23119;-85
2022/01/31 00:42:50;;;;;;;1.00;0.60;;;;;;;1.16;77.38;99345.66;84547;1331;23115;-75
2022/01/31 00:45:09;;;;;;;2.90;0.80;;;;;;;1.17;77.37;99346.48;84589;1329;25243;-75
2022/01/31 00:47:19;;;;;;;1.20;0.60;;;;;;;1.18;77.40;99340.98;84599;1333;25297;-85
2022/01/31 00:49:36;;;;;;;2.30;0.80;;;;;;;1.20;77.07;99341.31;84596;1331;26511;-86
2022/01/31 00:51:48;;;;;;;2.30;0.80;;;;;;;1.19;77.26;99344.25;84604;1329;22845;-86
2022/01/31 00:53:56;;;;;;;3.00;0.80;;;;;;;1.19;77.31;99353.70;84651;1329;22615;-85
2022/01/31 00:56:09;;;;;;;3.60;0.60;;;;;;;1.19;77.38;99351.97;84633;1330;22800;-85
2022/01/31 00:58:17;;;;;;;1.00;0.30;;;;;;;1.19;76.97;99354.73;84594;1332;22783;-85
2022/01/31 01:00:30;;;;;;;3.30;0.80;;;;;;;1.21;77.11;99351.94;84652;1329;22586;-84
2022/01/31 01:02:38;;;;;;;3.00;0.80;;;;;;;1.21;76.85;99357.77;84649;1328;22705;-84
2022/01/31 01:04:50;;;;;;;3.60;0.90;;;;;;;1.19;76.94;99358.48;84661;1331;24164;-85
2022/01/31 01:06:59;;;;;;;0.90;0.50;;;;;;;1.16;76.77;99362.66;84631;1330;25401;-85
2022/01/31 01:09:11;;;;;;;8.80;0.70;;;;;;;1.12;76.11;99366.85;84629;1329;23981;-84
2022/01/31 01:11:19;;;;;;;3.20;0.60;;;;;;;1.09;76.34;99363.98;83974;1329;1003102;-84
2022/01/31 01:13:28;;;;;;;4.00;0.90;;;;;;;1.05;76.52;99373.83;84648;1330;25302;-84
2022/01/31 01:15:40;;;;;;;4.70;1.00;;;;;;;1.01;76.50;99376.30;84611;1330;22736;-85
2022/01/31 01:17:49;;;;;;;4.00;0.70;;;;;;;0.95;76.55;99370.89;84645;1332;22598;-85
2022/01/31 01:20:00;;;;;;;2.00;0.80;;;;;;;0.89;75.86;99386.60;84630;1333;22637;-85
2022/01/31 01:22:09;;;;;;;2.30;0.80;;;;;;;0.83;75.66;99393.91;84658;1329;22597;-74
2022/01/31 01:24:20;;;;;;;2.90;0.60;;;;;;;0.77;75.82;99391.41;84633;1330;23801;-75
2022/01/31 01:26:29;;;;;;;1.70;0.60;;;;;;;0.71;75.87;99399.91;84576;1331;23864;-75
2022/01/31 01:28:37;;;;;;;1.40;0.60;;;;;;;0.66;75.89;99401.34;84625;1329;22850;-75
2022/01/31 01:30:47;;;;;;;0.60;0.60;;;;;;;0.63;75.78;99397.80;84642;1330;22748;-74
2022/01/31 01:33:07;;;;;;;2.40;0.90;;;;;;;0.59;75.66;99398.35;84591;1329;25297;-86
2022/01/31 01:35:16;;;;;;;1.40;0.70;;;;;;;0.55;75.77;99400.64;84601;1330;23059;-84
2022/01/31 01:37:27;;;;;;;1.10;0.60;;;;;;;0.50;75.62;99407.03;84627;1330;23916;-73
2022/01/31 01:39:36;;;;;;;2.60;0.80;;;;;;;0.46;75.47;99402.28;84618;1329;23071;-74
2022/01/31 01:41:44;;;;;;;1.80;0.80;;;;;;;0.41;75.53;99399.95;84548;1328;22608;-74
2022/01/31 01:43:55;;;;;;;1.00;0.50;;;;;;;0.36;75.79;99404.99;84566;1333;22598;-74
2022/01/31 01:46:04;;;;;;;1.90;0.60;;;;;;;0.31;75.80;99410.37;84480;1332;24222;-73
2022/01/31 01:48:13;;;;;;;2.60;0.70;;;;;;;0.25;75.62;99409.41;84567;1332;22800;-84
2022/01/31 01:50:24;;;;;;;1.90;0.70;;;;;;;0.20;75.75;99406.89;84572;1335;23007;-84
2022/01/31 01:52:33;;;;;;;3.20;0.50;;;;;;;0.16;75.29;99409.17;84576;1332;25547;-85
2022/01/31 01:54:42;;;;;;;4.90;0.70;;;;;;;0.12;75.47;99408.70;84643;1329;22609;-84
2022/01/31 01:56:50;;;;;;;1.00;0.50;;;;;;;0.07;75.40;99408.41;84587;1333;22610;-74
2022/01/31 01:59:04;;;;;;;1.80;0.90;;;;;;;0.05;75.49;99401.92;84575;1327;22610;-74
2022/01/31 02:01:13;;;;;;;2.20;0.80;;;;;;;0.03;75.34;99404.35;84591;1329;22704;-83
2022/01/31 02:03:22;;;;;;;2.20;0.80;;;;;;;0.02;75.43;99401.45;84563;1332;22926;-85
2022/01/31 02:05:31;;;;;;;2.90;0.90;;;;;;;0.01;75.38;99400.42;84612;1325;25356;-84
2022/01/31 02:07:40;;;;;;;2.50;1.10;;;;;;;-0.01;75.69;99402.32;84596;1331;22570;-84
2022/01/31 02:09:54;;;;;;;2.50;0.80;;;;;;;-0.03;75.54;99396.86;84614;1329;22859;-84
2022/01/31 02:12:07;;;;;;;1.70;0.70;;;;;;;-0.04;75.72;99394.81;84418;1330;256605;-74
2022/01/31 02:14:17;;;;;;;2.00;1.00;;;;;;;-0.04;75.91;99390.72;84563;1335;22688;-74
2022/01/31 02:16:25;;;;;;;1.60;0.80;;;;;;;-0.02;75.79;99392.73;84625;1330;22628;-74
2022/01/31 02:18:38;;;;;;;1.30;0.80;;;;;;;0.02;75.86;99395.27;84603;1330;25274;-75
2022/01/31 02:20:50;;;;;;;2.00;0.70;;;;;;;0.07;75.67;99391.29;83896;1332;1003704;-75
2022/01/31 02:23:02;;;;;;;1.60;0.50;;;;;;;0.14;75.78;99390.50;84625;1333;23968;-85
2022/01/31 02:25:15;;;;;;;2.80;0.70;;;;;;;0.20;75.98;99394.04;84641;1327;22648;-85
2022/01/31 02:27:30;;;;;;;5.10;0.60;;;;;;;0.27;76.03;99394.98;84723;1325;22608;-75
2022/01/31 02:29:39;;;;;;;1.60;0.70;;;;;;;0.34;75.92;99389.40;84615;1331;22617;-75
2022/01/31 02:31:49;;;;;;;1.30;0.70;;;;;;;0.42;75.97;99394.45;84570;1333;22740;-75
2022/01/31 02:34:01;;;;;;;2.70;0.60;;;;;;;0.46;76.06;99395.77;84618;1327;24246;-74
2022/01/31 02:36:13;;;;;;;2.20;0.80;;;;;;;0.52;76.35;99392.78;84560;1333;22619;-78
2022/01/31 02:38:21;;;;;;;3.60;0.90;;;;;;;0.57;76.66;99391.34;84455;1334;22630;-86
2022/01/31 02:40:31;;;;;;;1.90;0.50;;;;;;;0.62;76.49;99388.17;84647;1330;25295;-84
2022/01/31 02:42:40;;;;;;;0.70;0.70;;;;;;;0.65;76.53;99382.33;84611;1330;22632;-84
2022/01/31 02:44:49;;;;;;;1.50;0.60;;;;;;;0.67;76.58;99383.14;84616;1329;22609;-85
2022/01/31 02:47:04;;;;;;;2.50;0.90;;;;;;;0.67;76.65;99379.53;84585;1333;23091;-86
2022/01/31 02:49:13;;;;;;;3.90;1.10;;;;;;;0.67;76.70;99376.95;84626;1332;22905;-85
2022/01/31 02:51:25;;;;;;;4.10;0.80;;;;;;;0.69;76.87;99389.29;83941;1330;1003664;-74
2022/01/31 02:53:40;;;;;;;3.40;1.00;;;;;;;0.70;77.16;99380.19;84641;1333;22604;-74
2022/01/31 02:55:52;;;;;;;3.20;0.90;;;;;;;0.72;77.21;99374.64;84626;1330;22947;-73
2022/01/31 02:58:01;;;;;;;3.00;1.80;;;;;;;0.75;77.36;99370.67;83939;1330;1003871;-73
2022/01/31 03:00:12;;;;;;;3.00;1.50;;;;;;;0.77;77.47;99366.86;84585;1330;22633;-74
2022/01/31 03:02:21;;;;;;;5.30;1.50;;;;;;;0.77;77.51;99368.90;84633;1333;22602;-73
2022/01/31 03:04:33;;;;;;;6.80;1.90;;;;;;;0.80;77.67;99371.30;84629;1329;24004;-73
2022/01/31 03:06:48;;;;;;;3.40;1.80;;;;;;;0.81;77.98;99373.52;84590;1333;24307;-74
2022/01/31 03:08:58;;;;;;;11.60;2.20;;;;;;;0.80;78.09;99379.70;84577;1330;22652;-74
2022/01/31 03:11:07;;;;;;;9.20;3.80;;;;;;;0.80;78.21;99388.63;84562;1331;22745;-73
2022/01/31 03:13:16;;;;;;;3.60;1.10;;;;;;;0.80;78.14;99372.31;84620;1330;22621;-85
2022/01/31 03:15:24;;;;;;;5.80;1.40;;;;;;;0.80;78.29;99368.37;84641;1330;23106;-85
2022/01/31 03:17:33;;;;;;;4.40;1.70;;;;;;;0.80;78.25;99362.19;84621;1333;22756;-74
2022/01/31 03:19:42;;;;;;;5.00;2.20;;;;;;;0.81;78.42;99365.61;84610;1330;22589;-74
2022/01/31 03:21:53;;;;;;;;;;;;;;;0.83;78.42;99364.04;84661;1329;25304;-74
2022/01/31 03:24:05;;;;;;;4.70;2.10;;;;;;;0.83;78.55;99365.23;84620;1330;22669;-72
2022/01/31 03:26:14;;;;;;;9.20;2.60;;;;;;;0.84;78.56;99369.34;84550;1335;25480;-74
2022/01/31 03:28:23;;;;;;;8.60;3.10;;;;;;;0.85;78.51;99368.98;84616;1330;22599;-74
2022/01/31 03:30:32;;;;;;;9.40;4.10;;;;;;;0.85;78.50;99373.45;84556;1333;22604;-74
2022/01/31 03:32:41;;;;;;;6.60;2.90;;;;;;;0.85;78.56;99382.71;84667;1331;25530;-74
2022/01/31 03:34:53;;;;;;;5.20;1.90;;;;;;;0.86;78.49;99377.90;84560;1330;25358;-74
2022/01/31 03:37:02;;;;;;;7.10;1.60;;;;;;;0.85;78.36;99375.67;84603;1330;23926;-74
2022/01/31 03:39:13;;;;;;;3.80;1.50;;;;;;;0.87;77.91;99383.38;84642;1330;22604;-73
2022/01/31 03:41:22;;;;;;;8.60;3.70;;;;;;;0.88;77.82;99388.34;84617;1327;22600;-83
2022/01/31 03:43:31;;;;;;;6.90;2.20;;;;;;;0.90;77.95;99370.80;84561;1332;22881;-85
2022/01/31 03:45:39;;;;;;;9.40;2.10;;;;;;;0.92;77.68;99365.27;84620;1332;22622;-84
2022/01/31 03:47:48;;;;;;;8.30;1.90;;;;;;;0.95;77.73;99366.77;84526;1334;22741;-84
2022/01/31 03:49:58;;;;;;;6.70;2.20;;;;;;;0.96;77.42;99379.80;84509;1335;22632;-84
2022/01/31 03:52:10;;;;;;;8.40;2.30;;;;;;;0.95;77.45;99393.56;84530;1334;22628;-84
2022/01/31 03:54:19;;;;;;;9.60;2.70;;;;;;;0.94;77.51;99394.27;84578;1333;22795;-83
2022/01/31 03:56:28;;;;;;;8.90;2.70;;;;;;;0.92;77.62;99387.41;84593;1334;23935;-74
2022/01/31 03:58:38;;;;;;;9.90;2.40;;;;;;;0.89;77.43;99379.73;84532;1334;25465;-75
2022/01/31 04:00:47;;;;;;;6.90;1.70;;;;;;;0.87;77.35;99372.89;84515;1333;22608;-74
2022/01/31 04:02:55;;;;;;;8.50;2.70;;;;;;;0.88;77.32;99365.84;84593;1332;22589;-84
2022/01/31 04:05:03;;;;;;;4.70;1.70;;;;;;;0.90;77.40;99366.84;84567;1335;25313;-84
2022/01/31 04:07:12;;;;;;;9.10;2.00;;;;;;;0.93;77.22;99376.06;84583;1329;22967;-83
2022/01/31 04:09:23;;;;;;;12.60;2.90;;;;;;;0.95;77.25;99377.94;84603;1327;24295;-83
2022/01/31 04:11:31;;;;;;;10.70;1.90;;;;;;;0.95;77.11;99373.47;84608;1328;22755;-83
2022/01/31 04:13:40;;;;;;;6.90;1.80;;;;;;;0.94;77.11;99365.41;84604;1331;22613;-84
2022/01/31 04:15:49;;;;;;;8.40;2.10;;;;;;;0.93;77.13;99361.83;84582;1335;22654;-84
2022/01/31 04:17:57;;;;;;;7.30;2.60;;;;;;;0.93;77.27;99361.83;84532;1335;25460;-73
2022/01/31 04:20:09;;;;;;;9.60;2.30;;;;;;;0.90;76.93;99371.14;82464;1332;1003087;-74
2022/01/31 04:22:20;;;;;;;12.50;2.90;;;;;;;0.84;76.83;99369.34;84523;1334;22865;-74
2022/01/31 04:24:33;;;;;;;8.40;2.10;;;;;;;0.80;77.13;99376.25;84525;1334;22599;-75
2022/01/31 04:26:55;;;;;;;8.10;2.40;;;;;;;0.78;77.25;99375.60;84562;1333;22616;-84
2022/01/31 04:29:07;;;;;;;7.20;2.30;;;;;;;0.77;77.18;99375.78;84611;1335;22951;-84
2022/01/31 04:31:37;;;;;;;5.90;2.60;;;;;;;0.78;77.13;99372.00;84626;1330;24017;-84
2022/01/31 04:33:46;;;;;;;5.40;2.10;;;;;;;0.77;77.43;99363.77;84582;1332;24304;-84
2022/01/31 04:35:55;;;;;;;13.00;2.60;;;;;;;0.75;77.26;99363.80;84572;1335;22611;-83
2022/01/31 04:38:05;;;;;;;7.60;3.00;;;;;;;0.73;77.10;99359.54;84539;1333;23100;-83
2022/01/31 04:40:15;;;;;;;7.40;3.00;;;;;;;0.72;77.40;99359.54;84579;1334;24240;-84
2022/01/31 04:42:28;;;;;;;12.20;2.60;;;;;;;0.70;77.33;99363.70;84619;1331;25439;-74
2022/01/31 04:44:38;;;;;;;13.80;3.30;;;;;;;0.67;77.42;99359.27;84562;1332;22932;-74
2022/01/31 04:46:49;;;;;;;9.30;2.50;;;;;;;0.65;77.52;99358.11;84637;1331;22723;-84
2022/01/31 04:49:00;;;;;;;12.70;2.10;;;;;;;0.66;77.45;99361.88;84632;1329;22607;-83
2022/01/31 04:51:14;;;;;;;14.90;3.10;;;;;;;0.65;77.48;99361.71;84579;1335;22612;-77
2022/01/31 04:53:23;;;;;;;16.00;4.50;;;;;;;0.64;77.58;99357.78;84570;1330;22872;-83
2022/01/31 04:55:33;;;;;;;11.10;2.40;;;;;;;0.66;77.59;99362.90;84626;1330;22604;-83
2022/01/31 04:57:41;;;;;;;13.60;3.30;;;;;;;0.67;77.69;99361.34;84594;1335;22621;-74
2022/01/31 04:59:51;;;;;;;9.40;2.70;;;;;;;0.68;77.61;99359.61;84554;1334;22659;-73
2022/01/31 05:01:59;;;;;;;;;;;;;;;0.67;77.70;99363.57;84643;1330;25293;-74
2022/01/31 05:04:10;;;;;;;12.20;2.50;;;;;;;0.66;77.68;99361.54;84568;1331;24004;-74
2022/01/31 05:06:28;;;;;;;15.70;2.90;;;;;;;0.65;77.54;99363.26;84633;1330;22603;-75
2022/01/31 05:08:38;;;;;;;15.40;3.80;;;;;;;0.64;77.46;99360.52;84610;1330;22619;-73
2022/01/31 05:10:50;;;;;;;9.80;2.80;;;;;;;0.62;77.51;99363.65;84624;1330;22604;-74
2022/01/31 05:12:59;;;;;;;17.80;3.20;;;;;;;0.60;77.45;99362.65;84612;1330;22600;-74
2022/01/31 05:15:12;;;;;;;10.90;3.40;;;;;;;0.57;77.47;99357.54;84582;1333;25360;-74
2022/01/31 05:17:22;;;;;;;7.50;3.00;;;;;;;0.57;77.57;99358.73;84639;1330;22615;-74
2022/01/31 05:19:34;;;;;;;7.90;3.40;;;;;;;0.59;77.47;99360.59;84500;1332;22770;-74
2022/01/31 05:21:43;;;;;;;6.70;2.90;;;;;;;0.60;77.60;99357.67;84598;1327;22711;-73
2022/01/31 05:23:55;;;;;;;14.30;4.00;;;;;;;0.58;77.47;99349.98;84664;1330;24219;-84
2022/01/31 05:26:09;;;;;;;19.60;3.90;;;;;;;0.56;77.22;99353.08;84661;1330;22611;-84
2022/01/31 05:28:18;;;;;;;15.30;4.10;;;;;;;0.53;77.54;99353.80;84633;1331;22616;-85
2022/01/31 05:30:26;;;;;;;12.20;3.40;;;;;;;0.53;77.48;99347.80;84632;1331;24396;-85
2022/01/31 05:32:35;;;;;;;10.90;2.60;;;;;;;0.51;77.42;99349.04;84598;1332;23965;-74
2022/01/31 05:34:44;;;;;;;13.70;2.90;;;;;;;0.50;77.48;99352.81;84504;1334;25570;-74
2022/01/31 05:36:57;;;;;;;9.30;3.10;;;;;;;0.49;77.49;99341.34;84523;1335;25291;-71
2022/01/31 05:39:07;;;;;;;12.20;3.70;;;;;;;0.47;77.50;99343.59;84608;1333;22885;-73
2022/01/31 05:41:18;;;;;;;14.50;3.50;;;;;;;0.45;77.42;99346.89;84620;1331;22648;-75
2022/01/31 05:43:28;;;;;;;8.80;3.20;;;;;;;0.44;77.70;99343.64;84616;1333;22600;-74
2022/01/31 05:45:36;;;;;;;10.40;3.70;;;;;;;0.43;77.50;99345.02;84631;1330;22828;-73
2022/01/31 05:47:48;;;;;;;12.70;3.10;;;;;;;0.43;77.66;99345.54;84604;1330;22631;-73
2022/01/31 05:49:57;;;;;;;14.50;3.40;;;;;;;0.42;77.43;99344.35;84594;1330;22628;-73
2022/01/31 05:52:07;;;;;;;11.10;3.10;;;;;;;0.41;77.59;99339.39;84611;1327;22750;-73
2022/01/31 05:54:17;;;;;;;14.60;3.50;;;;;;;0.39;77.65;99340.09;84622;1330;23040;-73
2022/01/31 05:56:25;;;;;;;12.40;4.40;;;;;;;0.38;77.65;99336.52;84445;1334;22877;-84
2022/01/31 05:58:34;;;;;;;16.30;5.70;;;;;;;0.35;77.76;99335.54;84610;1332;22745;-84
2022/01/31 06:00:43;;;;;;;16.50;5.40;;;;;;;0.32;77.68;99334.37;84620;1333;22629;-84
2022/01/31 06:02:59;;;;;;;11.30;4.20;;;;;;;0.30;77.78;99332.52;84638;1330;22609;-79
2022/01/31 06:05:09;;;;;;;15.20;5.00;;;;;;;0.27;77.71;99331.34;84647;1330;22612;-84
2022/01/31 06:07:21;;;;;;;11.50;3.70;;;;;;;0.26;77.86;99331.70;84628;1331;22611;-83
2022/01/31 06:09:31;;;;;;;14.50;3.90;;;;;;;0.24;77.74;99333.61;84614;1333;24229;-82
2022/01/31 06:11:41;;;;;;;17.30;5.30;;;;;;;0.23;77.81;99332.93;84598;1327;22606;-81
2022/01/31 06:13:50;;;;;;;13.40;4.80;;;;;;;0.22;77.79;99328.48;84600;1333;22599;-82
2022/01/31 06:16:02;;;;;;;19.80;6.30;;;;;;;0.22;77.88;99328.15;84583;1333;22584;-81
2022/01/31 06:18:11;;;;;;;15.80;4.30;;;;;;;0.22;78.00;99334.85;84609;1331;22616;-81
2022/01/31 06:20:20;;;;;;;13.30;4.50;;;;;;;0.21;77.85;99332.11;84627;1333;22587;-80
2022/01/31 06:22:29;;;;;;;10.60;4.00;;;;;;;0.20;77.93;99333.15;84632;1329;22603;-82
2022/01/31 06:24:39;;;;;;;11.30;3.20;;;;;;;0.20;77.87;99336.25;84600;1331;22614;-81
2022/01/31 06:26:49;;;;;;;16.20;5.20;;;;;;;0.20;78.18;99337.79;84605;1335;25381;-82
2022/01/31 06:29:01;;;;;;;8.40;3.40;;;;;;;0.21;78.18;99337.08;84621;1330;23898;-81
2022/01/31 06:31:12;;;;;;;16.80;4.90;;;;;;;0.24;78.17;99331.89;84622;1327;22825;-79
2022/01/31 06:33:21;;;;;;;12.10;3.50;;;;;;;0.29;78.13;99332.69;84659;1333;22595;-82
2022/01/31 06:35:29;;;;;;;14.70;4.70;;;;;;;0.35;78.01;99335.70;84616;1333;23892;-82
2022/01/31 06:37:41;;;;;;;11.80;4.20;;;;;;;0.37;78.06;99340.64;84616;1333;23879;-72
2022/01/31 06:39:50;;;;;;;13.50;3.70;;;;;;;0.36;77.65;99335.00;84609;1333;22602;-72
2022/01/31 06:41:59;;;;;;;11.90;3.60;;;;;;;0.36;77.72;99335.52;84606;1333;23331;-82
2022/01/31 06:44:08;;;;;;;10.20;4.60;;;;;;;0.36;77.44;99336.36;84619;1333;22676;-83
2022/01/31 06:46:18;;;;;;;9.90;4.00;;;;;;;0.32;77.00;99328.35;84640;1333;23918;-83
2022/01/31 06:48:26;;;;;;;13.10;4.70;;;;;;;0.25;76.89;99325.89;84600;1324;22926;-85
2022/01/31 06:50:35;;;;;;;11.00;4.80;;;;;;;0.17;77.14;99324.44;84621;1333;22893;-84
2022/01/31 06:52:43;;;;;;;15.60;4.40;;;;;;;0.12;77.21;99319.02;84619;1333;22606;-74
2022/01/31 06:54:54;;;;;;;11.10;3.20;;;;;;;0.10;77.44;99315.61;84564;1334;22583;-74
2022/01/31 06:57:04;;;;;;;12.40;3.40;;;;;;;0.15;77.48;99316.58;84604;1329;23935;-73
2022/01/31 06:59:16;;;;;;;13.30;4.40;;;;;;;0.23;77.62;99307.54;84646;1329;22597;-74
2022/01/31 07:01:27;;;;;;;17.80;3.90;;;;;;;0.35;77.37;99302.60;84614;1333;22813;-82
2022/01/31 07:03:37;;;;;;;10.80;4.40;;;;;;;0.48;77.60;99303.95;84624;1330;22618;-82
2022/01/31 07:05:46;;;;;;;15.00;4.00;;;;;;;0.64;77.52;99304.41;84589;1334;24624;-73
2022/01/31 07:07:58;;;;;;;13.90;4.00;;;;;;;0.77;77.04;99309.53;84627;1333;25436;-82
2022/01/31 07:10:09;;;;;;;14.50;3.80;;;;;;;0.84;77.07;99312.69;84613;1330;22653;-83
2022/01/31 07:12:23;;;;;;;11.00;4.30;;;;;;;0.91;76.89;99315.66;84659;1324;22610;-84
2022/01/31 07:14:32;;;;;;;11.30;3.60;;;;;;;0.94;76.46;99317.85;84514;1333;22606;-82
2022/01/31 07:16:43;;;;;;;13.80;3.30;;;;;;;0.90;76.27;99317.92;84624;1332;22625;-83
2022/01/31 07:18:53;;;;;;;9.20;3.00;;;;;;;0.85;76.19;99309.92;84636;1333;22589;-85
2022/01/31 07:21:12;;;;;;;11.00;4.20;;;;;;;0.80;76.29;99308.64;84578;1335;22625;-83
2022/01/31 07:23:27;;;;;;;11.90;3.90;;;;;;;0.77;76.23;99304.02;84570;1334;23911;-79
2022/01/31 07:25:36;;;;;;;12.30;3.20;;;;;;;0.76;76.24;99310.56;84629;1333;23950;-80
2022/01/31 07:27:48;;;;;;;15.10;3.20;;;;;;;0.77;76.25;99308.83;84607;1330;22581;-74
2022/01/31 07:29:57;;;;;;;11.50;3.40;;;;;;;0.79;76.27;99306.92;84625;1331;22926;-74
2022/01/31 07:32:11;;;;;;;10.40;3.90;;;;;;;0.85;76.41;99306.14;84570;1335;22622;-80
2022/01/31 07:34:21;;;;;;;11.70;3.90;;;;;;;0.95;76.75;99303.23;84663;1330;25301;-84
2022/01/31 07:36:30;;;;;;;;;;;;;;;1.04;76.67;99295.88;82553;1333;1016273;-73
2022/01/31 07:38:43;;;;;;;9.20;3.10;;;;;;;1.10;76.26;99299.55;84631;1331;23891;-73
2022/01/31 07:40:57;;;;;;;19.10;4.90;;;;;;;1.14;76.02;99300.52;84633;1330;23731;-71
2022/01/31 07:43:08;;;;;;;10.40;4.00;;;;;;;1.18;76.04;99298.73;84647;1330;25253;-84
2022/01/31 07:45:17;;;;;;;11.10;3.30;;;;;;;1.20;75.74;99296.48;83922;1330;1003918;-85
2022/01/31 07:47:31;;;;;;;15.70;5.10;;;;;;;1.24;75.88;99298.28;84617;1332;22736;-72
2022/01/31 07:49:41;;;;;;;13.20;3.70;;;;;;;1.25;75.55;99298.09;84582;1332;22702;-72
2022/01/31 07:51:52;;;;;;;16.40;3.90;;;;;;;1.22;75.72;99290.23;84655;1332;24256;-82
2022/01/31 07:54:06;;;;;;;10.70;3.90;;;;;;;1.18;75.12;99289.27;84627;1330;22602;-84
2022/01/31 07:56:15;;;;;;;12.60;3.40;;;;;;;1.13;75.04;99286.95;84565;1335;22628;-84
2022/01/31 07:58:24;;;;;;;11.70;3.30;;;;;;;1.11;75.34;99284.94;84657;1333;22599;-84
2022/01/31 08:00:34;;;;;;;10.40;3.30;;;;;;;1.12;75.43;99286.63;84633;1330;26187;-83
2022/01/31 08:02:43;;;;;;;14.20;4.70;;;;;;;1.12;75.27;99279.92;84597;1335;22645;-83
2022/01/31 08:04:54;;;;;;;11.00;3.90;;;;;;;1.11;75.29;99280.64;84660;1330;22620;-83
2022/01/31 08:07:05;;;;;;;12.40;3.40;;;;;;;1.09;75.15;99276.56;84577;1333;23936;-73
2022/01/31 08:09:14;;;;;;;12.10;4.00;;;;;;;1.11;75.46;99276.34;84631;1329;22606;-76
2022/01/31 08:11:31;;;;;;;9.50;3.30;;;;;;;1.15;75.26;99280.41;84521;1333;24178;-78
2022/01/31 08:13:42;;;;;;;12.40;3.40;;;;;;;1.15;75.18;99284.19;84570;1333;22685;-79
2022/01/31 08:16:01;;;;;;;20.40;4.30;;;;;;;1.15;75.15;99282.80;84558;1335;26528;-84
2022/01/31 08:18:11;;;;;;;14.60;4.00;;;;;;;1.17;75.10;99282.92;84520;1333;25448;-74
2022/01/31 08:20:20;;;;;;;13.80;3.70;;;;;;;1.22;75.18;99283.54;84611;1333;22624;-74
2022/01/31 08:22:32;;;;;;;14.40;4.30;;;;;;;1.27;75.27;99284.30;84650;1331;25310;-84
2022/01/31 08:24:44;;;;;;;10.50;3.60;;;;;;;1.36;75.31;99280.37;84709;1317;22600;-85
2022/01/31 08:26:56;;;;;;;10.10;3.40;;;;;;;1.48;75.06;99280.50;84739;1328;24065;-85
2022/01/31 08:29:15;;;;;;;11.40;3.90;;;;;;;1.57;74.94;99272.08;84706;1326;24244;-84
2022/01/31 08:31:34;;;;;;;7.20;4.10;;;;;;;1.69;74.69;99273.58;83983;1330;1003771;-85
2022/01/31 08:34:06;;;;;;;13.10;4.30;;;;;;;1.83;74.52;99275.00;84571;1334;22579;-84
2022/01/31 08:36:18;;;;;;;16.40;4.60;;;;;;;1.99;74.22;99272.10;84691;1328;22621;-84
2022/01/31 08:38:32;;;;;;;9.80;3.80;;;;;;;2.07;73.94;99268.67;84713;1329;24246;-83
2022/01/31 08:40:45;;;;;;;12.60;3.80;;;;;;;2.05;73.26;99267.14;84711;1329;25159;-83
2022/01/31 08:42:53;;;;;;;11.20;3.30;;;;;;;2.03;72.81;99262.90;84713;1330;23403;-84
2022/01/31 08:45:02;;;;;;;10.70;3.60;;;;;;;1.95;72.56;99257.73;84748;1329;22636;-83
2022/01/31 08:47:10;;;;;;;11.40;3.40;;;;;;;1.93;72.90;99265.86;84768;1331;25952;-84
2022/01/31 08:49:22;;;;;;;10.10;4.10;;;;;;;1.94;73.21;99260.34;84612;1334;22605;-74
2022/01/31 08:51:31;;;;;;;22.60;5.20;;;;;;;1.96;72.87;99263.05;84675;1329;22813;-73
2022/01/31 08:53:40;;;;;;;11.70;4.40;;;;;;;1.91;72.27;99260.05;84685;1329;22638;-83
2022/01/31 08:55:53;;;;;;;12.80;3.70;;;;;;;1.84;72.01;99258.63;84647;1330;25948;-84
2022/01/31 08:58:01;;;;;;;10.20;4.40;;;;;;;1.74;71.82;99263.84;84669;1331;22600;-85
2022/01/31 09:00:13;;;;;;;16.40;5.20;;;;;;;1.68;72.43;99262.08;84667;1328;24283;-74
2022/01/31 09:02:31;;;;;;;13.70;3.80;;;;;;;1.69;72.75;99261.54;84680;1331;22809;-74
2022/01/31 09:04:47;;;;;;;8.20;3.50;;;;;;;1.70;72.43;99254.80;84567;1331;22605;-74
2022/01/31 09:06:58;;;;;;;11.00;3.60;;;;;;;1.73;73.04;99257.84;84665;1329;22593;-84
2022/01/31 09:09:16;;;;;;;16.40;4.10;;;;;;;1.79;73.11;99253.76;84648;1331;22803;-73
2022/01/31 09:11:31;;;;;;;11.70;4.80;;;;;;;1.83;73.03;99255.58;84572;1331;22605;-74
2022/01/31 09:13:44;;;;;;;13.30;5.10;;;;;;;1.82;72.75;99255.23;84593;1328;22673;-74
2022/01/31 09:15:52;;;;;;;10.70;4.10;;;;;;;1.81;72.28;99257.85;84499;1325;25665;-73
2022/01/31 09:18:04;;;;;;;10.30;3.50;;;;;;;1.79;72.28;99257.55;84667;1329;22590;-73
2022/01/31 09:20:14;;;;;;;14.10;4.10;;;;;;;1.79;72.40;99258.22;84575;1330;24021;-84
2022/01/31 09:22:25;;;;;;;13.70;3.70;;;;;;;1.80;72.34;99252.88;84623;1327;24763;-83
2022/01/31 09:24:37;;;;;;;10.20;4.00;;;;;;;1.81;72.17;99254.57;84683;1328;22626;-85
2022/01/31 09:26:46;;;;;;;13.60;4.70;;;;;;;1.89;72.52;99247.19;84618;1328;22988;-85
2022/01/31 09:28:57;;;;;;;10.60;4.30;;;;;;;1.99;71.97;99243.89;84662;1329;25324;-85
2022/01/31 09:31:06;;;;;;;14.10;3.80;;;;;;;2.13;72.21;99233.45;84536;1332;22628;-84
2022/01/31 09:33:17;;;;;;;13.30;4.30;;;;;;;2.28;72.07;99229.65;84694;1329;22607;-80
2022/01/31 09:35:31;;;;;;;15.80;4.50;;;;;;;2.42;71.91;99229.52;84651;1332;22593;-84
2022/01/31 09:37:47;;;;;;;12.10;4.70;;;;;;;2.62;72.18;99227.48;84512;1333;22620;-84
2022/01/31 09:40:04;;;;;;;9.80;4.30;;;;;;;2.87;71.77;99221.52;84630;1333;22597;-74
2022/01/31 09:42:16;;;;;;;15.70;4.30;;;;;;;3.14;71.35;99212.92;84656;1330;22667;-74
2022/01/31 09:44:45;;;;;;;10.90;4.20;;;;;;;3.26;69.91;99207.77;84653;1329;22629;-73
2022/01/31 09:47:19;;;;;;;11.40;4.10;;;;;;;3.54;70.68;99206.48;84636;1330;25356;-74
2022/01/31 09:49:27;;;;;;;11.70;4.00;;;;;;;3.96;70.63;99198.70;84658;1329;22627;-75
2022/01/31 09:51:36;;;;;;;12.40;4.00;;;;;;;4.34;69.39;99196.01;84627;1329;22628;-73
2022/01/31 09:53:49;;;;;;;8.70;4.20;;;;;;;4.62;68.21;99188.18;84656;1330;22607;-85
2022/01/31 09:56:02;;;;;;;6.40;3.20;;;;;;;4.83;67.68;99183.36;84660;1332;22615;-85
2022/01/31 09:58:17;;;;;;;11.30;3.40;;;;;;;5.10;65.92;99182.58;84639;1321;22706;-83
2022/01/31 10:00:36;;;;;;;11.20;3.30;;;;;;;5.39;65.27;99182.77;84640;1329;22724;-74
2022/01/31 10:02:46;;;;;;;10.20;3.30;;;;;;;5.45;64.28;99181.02;84679;1330;25271;-75
2022/01/31 10:04:58;;;;;;;9.90;3.30;;;;;;;5.55;64.98;99183.58;84596;1329;22642;-74
2022/01/31 10:07:09;;;;;;;4.60;2.10;;;;;;;5.70;64.00;99177.65;84632;1327;22629;-75
2022/01/31 10:09:23;;;;;;;9.30;3.00;;;;;;;5.59;62.36;99178.23;84533;1331;22711;-75
2022/01/31 10:11:46;;;;;;;9.20;4.20;;;;;;;5.73;63.37;99174.77;82489;1324;3091714;-73
2022/01/31 10:16:37;;;;;;;8.50;3.20;;;;;;;6.62;60.35;99173.58;84561;1331;24151;-85
2022/01/31 10:19:00;;;;;;;;;;;;;;;6.83;59.18;99162.84;84731;1328;22584;-85
2022/01/31 10:21:09;;;;;;;10.00;3.20;;;;;;;6.95;59.64;99160.05;84670;1331;25516;-85
2022/01/31 10:23:18;;;;;;;6.50;2.90;;;;;;;7.21;59.66;99163.98;84606;1330;24149;-82
2022/01/31 10:25:29;;;;;;;;;;;;;;;7.05;58.43;99166.57;84722;1329;22594;-82